Nearby METAR Reports

 

EGQL - Leuchars Raf, United Kingdom
Distance from station: SW 11mi, 17km
Updated: 24/09/2017 23:50
Light rain, Mostly cloudy
Light rain, Mostly cloudy
 Wind from ESE
Wind: ESE 9 mph , 15 km/h
Temperature: 14°C
Dew Point: 13°C
Humidity: 94%
Barometer: 1019 hPa
Summary: Light rain
Clouds: Mostly cloudy
Visibility: 4 miles , 6 km
Cloud details: Mostly cloudy 1250 m
Mostly cloudy 1524 m
2017/09/24 22:50 EGQL 242250Z 11008KT 6000 -RA BKN041 BKN050 14/13 Q1019 WHT
EGPN - Dundee/Riverside, United Kingdom
Distance from station: WSW 13mi, 20km
Updated: 24/09/2017 20:50
NOT Current
Rain, Mostly cloudy
Rain, Mostly cloudy
 Wind from NE
Wind: NE 3 mph , 6 km/h
Temperature: 14°C
Dew Point: 13°C
Humidity: 94%
Barometer: 1019 hPa
Summary: Rain
Clouds: Mostly cloudy
Visibility: 3 miles , 5 km
Cloud details: Few Clouds 366 m
Partly cloudy 518 m
Mostly cloudy 732 m
2017/09/24 19:50 EGPN 241950Z 05003KT 5000 RA FEW012 SCT017 BKN024 14/13 Q1019
 
EGPH - Edinburgh Airpor, United Kingdom
Distance from station: SSW 46mi, 74km
Updated: 24/09/2017 23:50
Light rain, Overcast
Light rain, Overcast
 Wind from varies
Wind: varies 1 mph , 2 km/h
Temperature: 13°C
Dew Point: 13°C
Humidity: 100%
Barometer: 1019 hPa
Summary: Light rain
Clouds: Overcast
Visibility: 3 miles , 5 km
Cloud details: Overcast 853 m
2017/09/24 22:50 EGPH 242250Z VRB01KT 5000 -RA OVC028TCU 13/13 Q1019
EGPD - Aberdeen/Dyce, United Kingdom
Distance from station: NNE 51mi, 82km
Updated: 24/09/2017 23:50
Overcast
Overcast
 Wind from SSE
Wind: SSE 10 mph , 17 km/h
Temperature: 14°C
Dew Point: 13°C
Humidity: 94%
Barometer: 1021 hPa
Clouds: Overcast
Visibility: 5 miles , 8 km
Cloud details: Overcast 183 m
2017/09/24 22:50 EGPD 242250Z AUTO 16009KT 130V190 8000 OVC006 14/13 Q1021 NOSIG